sensor_id;sensor_type;location;lat;lon;timestamp;temperature;humidity
20035;DHT22;10178;48.034;9.800;2022-10-18T00:02:04;15.20;99.90
20035;DHT22;10178;48.034;9.800;2022-10-18T00:04:30;15.20;99.90
20035;DHT22;10178;48.034;9.800;2022-10-18T00:06:56;15.10;99.90
20035;DHT22;10178;48.034;9.800;2022-10-18T00:09:22;15.00;99.90
20035;DHT22;10178;48.034;9.800;2022-10-18T00:11:47;14.50;99.90
20035;DHT22;10178;48.034;9.800;2022-10-18T00:14:13;13.70;99.90
20035;DHT22;10178;48.034;9.800;2022-10-18T00:16:39;14.10;99.90
20035;DHT22;10178;48.034;9.800;2022-10-18T00:19:04;14.40;99.90
20035;DHT22;10178;48.034;9.800;2022-10-18T00:21:30;14.70;99.90
20035;DHT22;10178;48.034;9.800;2022-10-18T00:23:56;14.80;99.90
20035;DHT22;10178;48.034;9.800;2022-10-18T00:26:24;14.80;99.90
20035;DHT22;10178;48.034;9.800;2022-10-18T00:28:59;14.90;99.90
20035;DHT22;10178;48.034;9.800;2022-10-18T00:31:38;14.90;99.90
20035;DHT22;10178;48.034;9.800;2022-10-18T00:34:13;14.80;99.90
20035;DHT22;10178;48.034;9.800;2022-10-18T00:36:40;13.80;99.90
20035;DHT22;10178;48.034;9.800;2022-10-18T00:39:07;13.20;99.90
20035;DHT22;10178;48.034;9.800;2022-10-18T00:41:35;12.70;99.90
20035;DHT22;10178;48.034;9.800;2022-10-18T00:46:41;11.60;99.90
20035;DHT22;10178;48.034;9.800;2022-10-18T00:49:22;11.90;99.90
20035;DHT22;10178;48.034;9.800;2022-10-18T00:52:01;12.10;99.90
20035;DHT22;10178;48.034;9.800;2022-10-18T00:54:30;11.90;99.90
20035;DHT22;10178;48.034;9.800;2022-10-18T00:56:57;12.50;99.90
20035;DHT22;10178;48.034;9.800;2022-10-18T00:59:23;13.10;99.90
20035;DHT22;10178;48.034;9.800;2022-10-18T01:01:50;13.60;99.90
20035;DHT22;10178;48.034;9.800;2022-10-18T01:04:17;13.80;99.90
20035;DHT22;10178;48.034;9.800;2022-10-18T01:07:22;13.90;99.90
20035;DHT22;10178;48.034;9.800;2022-10-18T01:16:00;14.30;99.90
20035;DHT22;10178;48.034;9.800;2022-10-18T01:24:33;14.30;99.90
20035;DHT22;10178;48.034;9.800;2022-10-18T01:32:36;13.60;99.90
20035;DHT22;10178;48.034;9.800;2022-10-18T01:35:07;12.40;99.90
20035;DHT22;10178;48.034;9.800;2022-10-18T01:37:36;12.10;99.90
20035;DHT22;10178;48.034;9.800;2022-10-18T01:40:04;12.50;99.90
20035;DHT22;10178;48.034;9.800;2022-10-18T01:42:31;13.10;99.90
20035;DHT22;10178;48.034;9.800;2022-10-18T01:44:57;13.60;99.90
20035;DHT22;10178;48.034;9.800;2022-10-18T01:47:24;13.90;99.90
20035;DHT22;10178;48.034;9.800;2022-10-18T01:50:04;14.10;99.90
20035;DHT22;10178;48.034;9.800;2022-10-18T01:52:31;14.30;99.90
20035;DHT22;10178;48.034;9.800;2022-10-18T01:54:57;14.40;99.90
20035;DHT22;10178;48.034;9.800;2022-10-18T01:57:53;14.40;99.90
20035;DHT22;10178;48.034;9.800;2022-10-18T02:03:23;12.80;99.90
20035;DHT22;10178;48.034;9.800;2022-10-18T02:08:48;11.80;99.90
20035;DHT22;10178;48.034;9.800;2022-10-18T02:11:16;11.60;99.90
20035;DHT22;10178;48.034;9.800;2022-10-18T02:13:52;11.60;99.90
20035;DHT22;10178;48.034;9.800;2022-10-18T02:16:25;12.20;99.90
20035;DHT22;10178;48.034;9.800;2022-10-18T02:19:42;12.80;99.90
20035;DHT22;10178;48.034;9.800;2022-10-18T02:21:42;13.30;99.90
20035;DHT22;10178;48.034;9.800;2022-10-18T02:24:12;13.60;99.90
20035;DHT22;10178;48.034;9.800;2022-10-18T02:26:38;13.80;99.90
20035;DHT22;10178;48.034;9.800;2022-10-18T02:29:04;14.00;99.90
20035;DHT22;10178;48.034;9.800;2022-10-18T02:34:19;14.20;99.90
20035;DHT22;10178;48.034;9.800;2022-10-18T02:36:57;14.30;99.90
20035;DHT22;10178;48.034;9.800;2022-10-18T02:39:38;14.40;99.90
20035;DHT22;10178;48.034;9.800;2022-10-18T02:42:05;14.50;99.90
20035;DHT22;10178;48.034;9.800;2022-10-18T02:44:33;14.50;99.90
20035;DHT22;10178;48.034;9.800;2022-10-18T02:46:58;14.50;99.90
20035;DHT22;10178;48.034;9.800;2022-10-18T02:49:24;13.90;99.90
20035;DHT22;10178;48.034;9.800;2022-10-18T02:51:50;13.00;99.90
20035;DHT22;10178;48.034;9.800;2022-10-18T02:54:15;12.60;99.90
20035;DHT22;10178;48.034;9.800;2022-10-18T02:56:41;12.30;99.90
20035;DHT22;10178;48.034;9.800;2022-10-18T02:59:07;12.20;99.90
20035;DHT22;10178;48.034;9.800;2022-10-18T03:01:33;12.20;99.90
20035;DHT22;10178;48.034;9.800;2022-10-18T03:04:00;12.40;99.90
20035;DHT22;10178;48.034;9.800;2022-10-18T03:06:26;12.80;99.90
20035;DHT22;10178;48.034;9.800;2022-10-18T03:08:52;13.30;99.90
20035;DHT22;10178;48.034;9.800;2022-10-18T03:11:17;13.30;99.90
20035;DHT22;10178;48.034;9.800;2022-10-18T03:13:43;12.90;99.90
20035;DHT22;10178;48.034;9.800;2022-10-18T03:16:08;13.20;99.90
20035;DHT22;10178;48.034;9.800;2022-10-18T03:18:34;12.90;99.90
20035;DHT22;10178;48.034;9.800;2022-10-18T03:21:04;12.60;99.90
20035;DHT22;10178;48.034;9.800;2022-10-18T03:23:30;12.50;99.90
20035;DHT22;10178;48.034;9.800;2022-10-18T03:25:55;12.60;99.90
20035;DHT22;10178;48.034;9.800;2022-10-18T03:28:21;12.60;99.90
20035;DHT22;10178;48.034;9.800;2022-10-18T03:30:46;12.80;99.90
20035;DHT22;10178;48.034;9.800;2022-10-18T03:33:12;12.90;99.90
20035;DHT22;10178;48.034;9.800;2022-10-18T03:35:38;12.90;99.90
20035;DHT22;10178;48.034;9.800;2022-10-18T03:38:03;13.10;99.90
20035;DHT22;10178;48.034;9.800;2022-10-18T03:40:29;13.50;99.90
20035;DHT22;10178;48.034;9.800;2022-10-18T03:42:55;13.90;99.90
20035;DHT22;10178;48.034;9.800;2022-10-18T03:45:20;14.10;99.90
20035;DHT22;10178;48.034;9.800;2022-10-18T03:47:46;14.20;99.90
20035;DHT22;10178;48.034;9.800;2022-10-18T03:50:11;14.30;99.90
20035;DHT22;10178;48.034;9.800;2022-10-18T03:52:37;13.50;99.90
20035;DHT22;10178;48.034;9.800;2022-10-18T03:55:03;12.70;99.90
20035;DHT22;10178;48.034;9.800;2022-10-18T03:57:29;12.80;99.90
20035;DHT22;10178;48.034;9.800;2022-10-18T04:03:18;12.80;99.90
20035;DHT22;10178;48.034;9.800;2022-10-18T04:05:45;12.30;99.90
20035;DHT22;10178;48.034;9.800;2022-10-18T04:08:11;12.10;99.90
20035;DHT22;10178;48.034;9.800;2022-10-18T04:10:37;12.10;99.90
20035;DHT22;10178;48.034;9.800;2022-10-18T04:13:03;12.10;99.90
20035;DHT22;10178;48.034;9.800;2022-10-18T04:15:29;12.10;99.90
20035;DHT22;10178;48.034;9.800;2022-10-18T04:17:55;11.90;99.90
20035;DHT22;10178;48.034;9.800;2022-10-18T04:20:22;11.90;99.90
20035;DHT22;10178;48.034;9.800;2022-10-18T04:22:48;12.00;99.90
20035;DHT22;10178;48.034;9.800;2022-10-18T04:25:14;12.20;99.90
20035;DHT22;10178;48.034;9.800;2022-10-18T04:27:40;12.20;99.90
20035;DHT22;10178;48.034;9.800;2022-10-18T04:30:06;12.20;99.90
20035;DHT22;10178;48.034;9.800;2022-10-18T04:32:32;12.10;99.90
20035;DHT22;10178;48.034;9.800;2022-10-18T04:35:26;12.10;99.90
20035;DHT22;10178;48.034;9.800;2022-10-18T04:37:53;12.20;99.90
20035;DHT22;10178;48.034;9.800;2022-10-18T04:40:19;12.30;99.90
20035;DHT22;10178;48.034;9.800;2022-10-18T04:42:45;12.30;99.90
20035;DHT22;10178;48.034;9.800;2022-10-18T04:45:11;12.20;99.90
20035;DHT22;10178;48.034;9.800;2022-10-18T04:47:36;12.10;99.90
20035;DHT22;10178;48.034;9.800;2022-10-18T04:50:03;12.10;99.90
20035;DHT22;10178;48.034;9.800;2022-10-18T04:52:29;12.10;99.90
20035;DHT22;10178;48.034;9.800;2022-10-18T04:54:54;12.10;99.90
20035;DHT22;10178;48.034;9.800;2022-10-18T04:57:20;12.10;99.90
20035;DHT22;10178;48.034;9.800;2022-10-18T04:59:46;12.10;99.90
20035;DHT22;10178;48.034;9.800;2022-10-18T05:02:12;12.10;99.90
20035;DHT22;10178;48.034;9.800;2022-10-18T05:04:38;12.10;99.90
20035;DHT22;10178;48.034;9.800;2022-10-18T05:07:03;12.20;99.90
20035;DHT22;10178;48.034;9.800;2022-10-18T05:09:31;12.20;99.90
20035;DHT22;10178;48.034;9.800;2022-10-18T05:11:56;12.20;99.90
20035;DHT22;10178;48.034;9.800;2022-10-18T05:14:22;12.20;99.90
20035;DHT22;10178;48.034;9.800;2022-10-18T05:16:48;12.20;99.90
20035;DHT22;10178;48.034;9.800;2022-10-18T05:19:13;12.20;99.90
20035;DHT22;10178;48.034;9.800;2022-10-18T05:21:39;12.20;99.90
20035;DHT22;10178;48.034;9.800;2022-10-18T05:24:05;12.10;99.90
20035;DHT22;10178;48.034;9.800;2022-10-18T05:26:31;12.20;99.90
20035;DHT22;10178;48.034;9.800;2022-10-18T05:28:56;12.20;99.90
20035;DHT22;10178;48.034;9.800;2022-10-18T05:31:22;12.20;99.90
20035;DHT22;10178;48.034;9.800;2022-10-18T05:33:48;12.30;99.90
20035;DHT22;10178;48.034;9.800;2022-10-18T05:36:13;12.30;99.90
20035;DHT22;10178;48.034;9.800;2022-10-18T05:38:39;12.40;99.90
20035;DHT22;10178;48.034;9.800;2022-10-18T05:41:10;12.30;99.90
20035;DHT22;10178;48.034;9.800;2022-10-18T05:43:36;12.20;99.90
20035;DHT22;10178;48.034;9.800;2022-10-18T05:46:02;12.30;99.90
20035;DHT22;10178;48.034;9.800;2022-10-18T05:48:29;12.50;99.90
20035;DHT22;10178;48.034;9.800;2022-10-18T05:50:57;12.70;99.90
20035;DHT22;10178;48.034;9.800;2022-10-18T05:53:23;13.00;99.90
20035;DHT22;10178;48.034;9.800;2022-10-18T05:55:49;13.10;99.90
20035;DHT22;10178;48.034;9.800;2022-10-18T05:58:15;12.90;99.90
20035;DHT22;10178;48.034;9.800;2022-10-18T06:00:40;13.10;99.90
20035;DHT22;10178;48.034;9.800;2022-10-18T06:03:06;13.00;99.90
20035;DHT22;10178;48.034;9.800;2022-10-18T06:05:32;12.90;99.90
20035;DHT22;10178;48.034;9.800;2022-10-18T06:07:58;13.00;99.90
20035;DHT22;10178;48.034;9.800;2022-10-18T06:10:23;12.90;99.90
20035;DHT22;10178;48.034;9.800;2022-10-18T06:12:49;12.60;99.90
20035;DHT22;10178;48.034;9.800;2022-10-18T06:15:15;12.60;99.90
20035;DHT22;10178;48.034;9.800;2022-10-18T06:17:40;12.90;99.90
20035;DHT22;10178;48.034;9.800;2022-10-18T06:20:06;13.20;99.90
20035;DHT22;10178;48.034;9.800;2022-10-18T06:22:33;13.50;99.90
20035;DHT22;10178;48.034;9.800;2022-10-18T06:24:58;13.70;99.90
20035;DHT22;10178;48.034;9.800;2022-10-18T06:27:24;13.70;99.90
20035;DHT22;10178;48.034;9.800;2022-10-18T06:29:50;13.50;99.90
20035;DHT22;10178;48.034;9.800;2022-10-18T06:32:15;13.30;99.90
20035;DHT22;10178;48.034;9.800;2022-10-18T06:34:41;12.90;99.90
20035;DHT22;10178;48.034;9.800;2022-10-18T06:37:06;12.50;99.90
20035;DHT22;10178;48.034;9.800;2022-10-18T06:39:32;12.40;99.90
20035;DHT22;10178;48.034;9.800;2022-10-18T06:41:58;12.40;99.90
20035;DHT22;10178;48.034;9.800;2022-10-18T06:44:24;12.30;99.90
20035;DHT22;10178;48.034;9.800;2022-10-18T06:46:49;12.20;99.90
20035;DHT22;10178;48.034;9.800;2022-10-18T06:49:16;12.40;99.90
20035;DHT22;10178;48.034;9.800;2022-10-18T06:51:42;12.60;99.90
20035;DHT22;10178;48.034;9.800;2022-10-18T06:54:09;12.50;99.90
20035;DHT22;10178;48.034;9.800;2022-10-18T06:56:35;12.40;99.90
20035;DHT22;10178;48.034;9.800;2022-10-18T06:59:01;12.40;99.90
20035;DHT22;10178;48.034;9.800;2022-10-18T07:01:26;12.30;99.90
20035;DHT22;10178;48.034;9.800;2022-10-18T07:03:55;12.30;99.90
20035;DHT22;10178;48.034;9.800;2022-10-18T07:06:21;12.20;99.90
20035;DHT22;10178;48.034;9.800;2022-10-18T07:08:49;12.40;99.90
20035;DHT22;10178;48.034;9.800;2022-10-18T07:11:18;12.80;99.90
20035;DHT22;10178;48.034;9.800;2022-10-18T07:13:44;13.10;99.90
20035;DHT22;10178;48.034;9.800;2022-10-18T07:16:12;13.20;99.90
20035;DHT22;10178;48.034;9.800;2022-10-18T07:18:41;13.00;99.90
20035;DHT22;10178;48.034;9.800;2022-10-18T07:21:12;12.70;99.90
20035;DHT22;10178;48.034;9.800;2022-10-18T07:23:40;12.50;99.90
20035;DHT22;10178;48.034;9.800;2022-10-18T07:28:57;12.50;99.90
20035;DHT22;10178;48.034;9.800;2022-10-18T07:31:24;12.50;99.90
20035;DHT22;10178;48.034;9.800;2022-10-18T07:33:50;12.80;99.90
20035;DHT22;10178;48.034;9.800;2022-10-18T07:36:17;13.10;99.90
20035;DHT22;10178;48.034;9.800;2022-10-18T07:38:42;13.30;99.90
20035;DHT22;10178;48.034;9.800;2022-10-18T07:41:11;13.50;99.90
20035;DHT22;10178;48.034;9.800;2022-10-18T07:43:40;13.70;99.90
20035;DHT22;10178;48.034;9.800;2022-10-18T07:46:06;14.10;99.90
20035;DHT22;10178;48.034;9.800;2022-10-18T07:48:31;14.40;99.90
20035;DHT22;10178;48.034;9.800;2022-10-18T07:50:59;14.80;99.90
20035;DHT22;10178;48.034;9.800;2022-10-18T07:53:25;15.30;99.90
20035;DHT22;10178;48.034;9.800;2022-10-18T07:55:50;15.60;99.90
20035;DHT22;10178;48.034;9.800;2022-10-18T07:58:16;15.80;99.90
20035;DHT22;10178;48.034;9.800;2022-10-18T08:00:41;16.10;99.90
20035;DHT22;10178;48.034;9.800;2022-10-18T08:03:07;16.20;99.90
20035;DHT22;10178;48.034;9.800;2022-10-18T08:05:33;16.30;99.90
20035;DHT22;10178;48.034;9.800;2022-10-18T08:07:58;16.30;99.90
20035;DHT22;10178;48.034;9.800;2022-10-18T08:10:24;16.10;99.90
20035;DHT22;10178;48.034;9.800;2022-10-18T08:12:50;16.00;99.90
20035;DHT22;10178;48.034;9.800;2022-10-18T08:15:16;15.80;99.90
20035;DHT22;10178;48.034;9.800;2022-10-18T08:17:41;15.80;99.90
20035;DHT22;10178;48.034;9.800;2022-10-18T08:20:10;15.80;99.90
20035;DHT22;10178;48.034;9.800;2022-10-18T08:22:35;15.80;99.90
20035;DHT22;10178;48.034;9.800;2022-10-18T08:25:01;15.70;99.90
20035;DHT22;10178;48.034;9.800;2022-10-18T08:27:26;15.60;99.90
20035;DHT22;10178;48.034;9.800;2022-10-18T08:29:52;15.60;99.90
20035;DHT22;10178;48.034;9.800;2022-10-18T08:32:18;15.60;99.90
20035;DHT22;10178;48.034;9.800;2022-10-18T08:34:43;15.50;99.90
20035;DHT22;10178;48.034;9.800;2022-10-18T08:37:09;15.50;99.90
20035;DHT22;10178;48.034;9.800;2022-10-18T08:39:35;15.60;99.90
20035;DHT22;10178;48.034;9.800;2022-10-18T08:44:53;15.80;99.90
20035;DHT22;10178;48.034;9.800;2022-10-18T08:47:22;15.90;99.90
20035;DHT22;10178;48.034;9.800;2022-10-18T08:50:17;15.90;99.90
20035;DHT22;10178;48.034;9.800;2022-10-18T08:55:38;16.00;99.90
20035;DHT22;10178;48.034;9.800;2022-10-18T08:58:25;16.00;99.90
20035;DHT22;10178;48.034;9.800;2022-10-18T09:06:39;16.10;99.90
20035;DHT22;10178;48.034;9.800;2022-10-18T09:09:39;16.10;99.90
20035;DHT22;10178;48.034;9.800;2022-10-18T09:12:39;16.20;99.90
20035;DHT22;10178;48.034;9.800;2022-10-18T09:15:12;16.20;99.90
20035;DHT22;10178;48.034;9.800;2022-10-18T09:21:03;16.50;99.90
20035;DHT22;10178;48.034;9.800;2022-10-18T09:31:51;17.00;99.90
20035;DHT22;10178;48.034;9.800;2022-10-18T09:34:41;17.20;99.90
20035;DHT22;10178;48.034;9.800;2022-10-18T09:37:12;17.60;99.90
20035;DHT22;10178;48.034;9.800;2022-10-18T09:39:38;18.00;99.90
20035;DHT22;10178;48.034;9.800;2022-10-18T09:42:17;18.00;99.90
20035;DHT22;10178;48.034;9.800;2022-10-18T09:44:57;18.30;99.90
20035;DHT22;10178;48.034;9.800;2022-10-18T09:47:38;18.60;99.90
20035;DHT22;10178;48.034;9.800;2022-10-18T09:53:09;18.80;99.90
20035;DHT22;10178;48.034;9.800;2022-10-18T09:55:36;18.70;99.90
20035;DHT22;10178;48.034;9.800;2022-10-18T09:58:04;18.90;99.90
20035;DHT22;10178;48.034;9.800;2022-10-18T10:00:34;19.00;99.90
20035;DHT22;10178;48.034;9.800;2022-10-18T10:03:09;19.00;99.90
20035;DHT22;10178;48.034;9.800;2022-10-18T10:05:37;18.90;99.90
20035;DHT22;10178;48.034;9.800;2022-10-18T10:08:02;18.80;99.90
20035;DHT22;10178;48.034;9.800;2022-10-18T10:10:30;18.70;99.90
20035;DHT22;10178;48.034;9.800;2022-10-18T10:13:15;18.70;99.90
20035;DHT22;10178;48.034;9.800;2022-10-18T10:15:50;18.60;99.90
20035;DHT22;10178;48.034;9.800;2022-10-18T10:18:21;18.90;99.90
20035;DHT22;10178;48.034;9.800;2022-10-18T10:20:53;19.20;99.90
20035;DHT22;10178;48.034;9.800;2022-10-18T10:23:24;19.20;99.90
20035;DHT22;10178;48.034;9.800;2022-10-18T10:25:59;19.60;99.90
20035;DHT22;10178;48.034;9.800;2022-10-18T10:28:28;19.60;99.90
20035;DHT22;10178;48.034;9.800;2022-10-18T10:36:27;19.60;99.90
20035;DHT22;10178;48.034;9.800;2022-10-18T10:39:06;19.40;99.90
20035;DHT22;10178;48.034;9.800;2022-10-18T10:41:35;19.50;99.90
20035;DHT22;10178;48.034;9.800;2022-10-18T10:44:03;19.50;99.90
20035;DHT22;10178;48.034;9.800;2022-10-18T10:46:34;19.60;99.90
20035;DHT22;10178;48.034;9.800;2022-10-18T10:49:00;19.30;99.90
20035;DHT22;10178;48.034;9.800;2022-10-18T10:51:37;19.50;99.90
20035;DHT22;10178;48.034;9.800;2022-10-18T10:54:05;19.60;99.90
20035;DHT22;10178;48.034;9.800;2022-10-18T10:57:00;19.60;99.90
20035;DHT22;10178;48.034;9.800;2022-10-18T10:59:26;19.70;99.90
20035;DHT22;10178;48.034;9.800;2022-10-18T11:02:17;19.50;99.90
20035;DHT22;10178;48.034;9.800;2022-10-18T11:04:50;19.40;99.90
20035;DHT22;10178;48.034;9.800;2022-10-18T11:07:41;19.60;99.90
20035;DHT22;10178;48.034;9.800;2022-10-18T11:13:00;19.90;99.90
20035;DHT22;10178;48.034;9.800;2022-10-18T11:15:34;20.00;99.90
20035;DHT22;10178;48.034;9.800;2022-10-18T11:23:17;19.90;99.90
20035;DHT22;10178;48.034;9.800;2022-10-18T11:42:18;19.80;99.90
20035;DHT22;10178;48.034;9.800;2022-10-18T11:44:54;19.90;99.90
20035;DHT22;10178;48.034;9.800;2022-10-18T11:50:42;20.30;99.90
20035;DHT22;10178;48.034;9.800;2022-10-18T12:04:38;19.70;99.90
20035;DHT22;10178;48.034;9.800;2022-10-18T12:07:06;19.80;99.90
20035;DHT22;10178;48.034;9.800;2022-10-18T12:09:40;19.80;99.90
20035;DHT22;10178;48.034;9.800;2022-10-18T12:12:36;19.60;99.90
20035;DHT22;10178;48.034;9.800;2022-10-18T12:15:13;19.80;99.90
20035;DHT22;10178;48.034;9.800;2022-10-18T12:17:43;19.70;99.90
20035;DHT22;10178;48.034;9.800;2022-10-18T12:20:18;19.50;99.90
20035;DHT22;10178;48.034;9.800;2022-10-18T12:25:24;19.30;99.90
20035;DHT22;10178;48.034;9.800;2022-10-18T12:28:02;19.20;99.90
20035;DHT22;10178;48.034;9.800;2022-10-18T12:30:44;19.10;99.90
20035;DHT22;10178;48.034;9.800;2022-10-18T12:33:17;18.90;99.90
20035;DHT22;10178;48.034;9.800;2022-10-18T12:38:42;18.80;99.90
20035;DHT22;10178;48.034;9.800;2022-10-18T12:41:17;18.70;99.90
20035;DHT22;10178;48.034;9.800;2022-10-18T12:43:53;18.90;99.90
20035;DHT22;10178;48.034;9.800;2022-10-18T12:46:20;19.00;99.90
20035;DHT22;10178;48.034;9.800;2022-10-18T12:49:03;19.00;99.90
20035;DHT22;10178;48.034;9.800;2022-10-18T12:51:29;18.90;99.90
20035;DHT22;10178;48.034;9.800;2022-10-18T13:09:24;19.20;99.90
20035;DHT22;10178;48.034;9.800;2022-10-18T13:11:51;19.10;99.90
20035;DHT22;10178;48.034;9.800;2022-10-18T13:14:36;19.20;99.90
20035;DHT22;10178;48.034;9.800;2022-10-18T13:20:22;19.10;99.90
20035;DHT22;10178;48.034;9.800;2022-10-18T13:28:40;19.60;99.90
20035;DHT22;10178;48.034;9.800;2022-10-18T13:31:33;19.60;99.90
20035;DHT22;10178;48.034;9.800;2022-10-18T13:34:23;19.60;99.90
20035;DHT22;10178;48.034;9.800;2022-10-18T13:37:02;19.60;99.90
20035;DHT22;10178;48.034;9.800;2022-10-18T13:39:30;19.70;99.90
20035;DHT22;10178;48.034;9.800;2022-10-18T13:44:34;19.90;99.90
20035;DHT22;10178;48.034;9.800;2022-10-18T14:08:26;20.40;99.90
20035;DHT22;10178;48.034;9.800;2022-10-18T14:13:47;20.30;99.90
20035;DHT22;10178;48.034;9.800;2022-10-18T14:16:59;20.20;99.90
20035;DHT22;10178;48.034;9.800;2022-10-18T14:19:41;20.00;99.90
20035;DHT22;10178;48.034;9.800;2022-10-18T14:22:33;19.60;99.90
20035;DHT22;10178;48.034;9.800;2022-10-18T14:25:01;19.30;99.90
20035;DHT22;10178;48.034;9.800;2022-10-18T14:27:28;19.20;99.90
20035;DHT22;10178;48.034;9.800;2022-10-18T14:30:14;19.10;99.90
20035;DHT22;10178;48.034;9.800;2022-10-18T14:32:46;19.10;99.90
20035;DHT22;10178;48.034;9.800;2022-10-18T14:35:21;19.20;99.90
20035;DHT22;10178;48.034;9.800;2022-10-18T14:37:49;19.20;99.90
20035;DHT22;10178;48.034;9.800;2022-10-18T14:40:36;19.40;99.90
20035;DHT22;10178;48.034;9.800;2022-10-18T14:45:33;19.50;99.90
20035;DHT22;10178;48.034;9.800;2022-10-18T14:48:25;19.40;99.90
20035;DHT22;10178;48.034;9.800;2022-10-18T14:50:57;19.50;99.90
20035;DHT22;10178;48.034;9.800;2022-10-18T14:53:27;19.60;99.90
20035;DHT22;10178;48.034;9.800;2022-10-18T14:56:00;19.70;99.90
20035;DHT22;10178;48.034;9.800;2022-10-18T15:02:02;19.90;99.90
20035;DHT22;10178;48.034;9.800;2022-10-18T15:04:30;20.00;99.90
20035;DHT22;10178;48.034;9.800;2022-10-18T15:07:04;20.00;99.90
20035;DHT22;10178;48.034;9.800;2022-10-18T15:09:33;19.90;99.90
20035;DHT22;10178;48.034;9.800;2022-10-18T15:12:02;19.80;99.90
20035;DHT22;10178;48.034;9.800;2022-10-18T15:14:32;19.70;99.90
20035;DHT22;10178;48.034;9.800;2022-10-18T15:17:01;19.50;99.90
20035;DHT22;10178;48.034;9.800;2022-10-18T15:19:32;19.50;99.90
20035;DHT22;10178;48.034;9.800;2022-10-18T15:22:03;19.30;99.90
20035;DHT22;10178;48.034;9.800;2022-10-18T15:24:35;19.20;99.90
20035;DHT22;10178;48.034;9.800;2022-10-18T15:27:23;19.20;99.90
20035;DHT22;10178;48.034;9.800;2022-10-18T15:29:51;19.10;99.90
20035;DHT22;10178;48.034;9.800;2022-10-18T15:32:28;19.10;99.90
20035;DHT22;10178;48.034;9.800;2022-10-18T15:34:54;19.10;99.90
20035;DHT22;10178;48.034;9.800;2022-10-18T15:40:36;19.10;99.90
20035;DHT22;10178;48.034;9.800;2022-10-18T15:43:05;19.00;99.90
20035;DHT22;10178;48.034;9.800;2022-10-18T15:45:58;19.00;99.90
20035;DHT22;10178;48.034;9.800;2022-10-18T15:48:40;19.10;99.90
20035;DHT22;10178;48.034;9.800;2022-10-18T15:51:54;19.20;99.90
20035;DHT22;10178;48.034;9.800;2022-10-18T15:53:53;19.30;99.90
20035;DHT22;10178;48.034;9.800;2022-10-18T15:56:34;19.40;99.90
20035;DHT22;10178;48.034;9.800;2022-10-18T15:59:03;19.60;99.90
20035;DHT22;10178;48.034;9.800;2022-10-18T16:01:43;19.70;99.90
20035;DHT22;10178;48.034;9.800;2022-10-18T16:04:24;19.80;99.90
20035;DHT22;10178;48.034;9.800;2022-10-18T16:06:51;19.50;99.90
20035;DHT22;10178;48.034;9.800;2022-10-18T16:09:18;19.30;99.90
20035;DHT22;10178;48.034;9.800;2022-10-18T16:11:45;19.20;99.90
20035;DHT22;10178;48.034;9.800;2022-10-18T16:14:11;18.90;99.90
20035;DHT22;10178;48.034;9.800;2022-10-18T16:16:38;19.00;99.90
20035;DHT22;10178;48.034;9.800;2022-10-18T16:19:03;19.20;99.90
20035;DHT22;10178;48.034;9.800;2022-10-18T16:21:38;19.50;99.90
20035;DHT22;10178;48.034;9.800;2022-10-18T16:24:04;19.60;99.90
20035;DHT22;10178;48.034;9.800;2022-10-18T16:26:31;19.70;99.90
20035;DHT22;10178;48.034;9.800;2022-10-18T16:28:57;19.70;99.90
20035;DHT22;10178;48.034;9.800;2022-10-18T16:31:28;19.30;99.90
20035;DHT22;10178;48.034;9.800;2022-10-18T16:33:54;19.10;99.90
20035;DHT22;10178;48.034;9.800;2022-10-18T16:36:22;18.90;99.90
20035;DHT22;10178;48.034;9.800;2022-10-18T16:38:49;18.50;99.90
20035;DHT22;10178;48.034;9.800;2022-10-18T16:41:15;18.40;99.90
20035;DHT22;10178;48.034;9.800;2022-10-18T16:43:43;18.30;99.90
20035;DHT22;10178;48.034;9.800;2022-10-18T16:46:14;18.20;99.90
20035;DHT22;10178;48.034;9.800;2022-10-18T16:48:41;18.20;99.90
20035;DHT22;10178;48.034;9.800;2022-10-18T16:51:11;18.10;99.90
20035;DHT22;10178;48.034;9.800;2022-10-18T16:53:37;18.20;99.90
20035;DHT22;10178;48.034;9.800;2022-10-18T16:56:04;18.30;99.90
20035;DHT22;10178;48.034;9.800;2022-10-18T16:58:32;18.60;99.90
20035;DHT22;10178;48.034;9.800;2022-10-18T17:00:58;19.10;99.90
20035;DHT22;10178;48.034;9.800;2022-10-18T17:03:24;19.40;99.90
20035;DHT22;10178;48.034;9.800;2022-10-18T17:05:50;19.70;99.90
20035;DHT22;10178;48.034;9.800;2022-10-18T17:08:21;19.70;99.90
20035;DHT22;10178;48.034;9.800;2022-10-18T17:10:48;19.70;99.90
20035;DHT22;10178;48.034;9.800;2022-10-18T17:13:15;19.80;99.90
20035;DHT22;10178;48.034;9.800;2022-10-18T17:15:41;19.80;99.90
20035;DHT22;10178;48.034;9.800;2022-10-18T17:18:16;19.50;99.90
20035;DHT22;10178;48.034;9.800;2022-10-18T17:20:43;19.70;99.90
20035;DHT22;10178;48.034;9.800;2022-10-18T17:23:09;19.50;99.90
20035;DHT22;10178;48.034;9.800;2022-10-18T17:25:39;19.80;99.90
20035;DHT22;10178;48.034;9.800;2022-10-18T17:28:05;20.00;99.90
20035;DHT22;10178;48.034;9.800;2022-10-18T17:30:32;20.10;99.90
20035;DHT22;10178;48.034;9.800;2022-10-18T17:32:57;20.20;99.90
20035;DHT22;10178;48.034;9.800;2022-10-18T17:35:23;20.20;99.90
20035;DHT22;10178;48.034;9.800;2022-10-18T17:37:49;20.20;99.90
20035;DHT22;10178;48.034;9.800;2022-10-18T17:40:21;20.20;99.90
20035;DHT22;10178;48.034;9.800;2022-10-18T17:42:52;20.20;99.90
20035;DHT22;10178;48.034;9.800;2022-10-18T17:45:20;19.60;99.90
20035;DHT22;10178;48.034;9.800;2022-10-18T17:47:47;19.20;99.90
20035;DHT22;10178;48.034;9.800;2022-10-18T17:50:13;19.30;99.90
20035;DHT22;10178;48.034;9.800;2022-10-18T17:52:44;19.50;99.90
20035;DHT22;10178;48.034;9.800;2022-10-18T17:55:12;19.50;99.90
20035;DHT22;10178;48.034;9.800;2022-10-18T17:57:38;19.50;99.90
20035;DHT22;10178;48.034;9.800;2022-10-18T18:00:05;19.50;99.90
20035;DHT22;10178;48.034;9.800;2022-10-18T18:02:32;19.50;99.90
20035;DHT22;10178;48.034;9.800;2022-10-18T18:04:58;19.50;99.90
20035;DHT22;10178;48.034;9.800;2022-10-18T18:07:24;19.50;99.90
20035;DHT22;10178;48.034;9.800;2022-10-18T18:09:49;19.50;99.90
20035;DHT22;10178;48.034;9.800;2022-10-18T18:12:15;19.40;99.90
20035;DHT22;10178;48.034;9.800;2022-10-18T18:14:41;19.40;99.90
20035;DHT22;10178;48.034;9.800;2022-10-18T18:17:06;19.30;99.90
20035;DHT22;10178;48.034;9.800;2022-10-18T18:19:33;19.20;99.90
20035;DHT22;10178;48.034;9.800;2022-10-18T18:21:59;19.20;99.90
20035;DHT22;10178;48.034;9.800;2022-10-18T18:24:26;19.20;99.90
20035;DHT22;10178;48.034;9.800;2022-10-18T18:26:53;19.20;99.90
20035;DHT22;10178;48.034;9.800;2022-10-18T18:29:20;19.20;99.90
20035;DHT22;10178;48.034;9.800;2022-10-18T18:31:46;19.20;99.90
20035;DHT22;10178;48.034;9.800;2022-10-18T18:34:12;19.00;99.90
20035;DHT22;10178;48.034;9.800;2022-10-18T18:36:38;18.70;99.90
20035;DHT22;10178;48.034;9.800;2022-10-18T18:39:04;18.80;99.90